sensor_id;sensor_type;location;lat;lon;timestamp;P1;durP1;ratioP1;P2;durP2;ratioP2
18780;SDS011;9519;51.890;8.970;2023-01-20T00:00:07;35.90;;;20.70;;
18780;SDS011;9519;51.890;8.970;2023-01-20T00:05:10;37.50;;;22.40;;
18780;SDS011;9519;51.890;8.970;2023-01-20T00:10:14;40.50;;;21.50;;
18780;SDS011;9519;51.890;8.970;2023-01-20T00:15:17;42.03;;;23.80;;
18780;SDS011;9519;51.890;8.970;2023-01-20T00:20:19;40.20;;;23.17;;
18780;SDS011;9519;51.890;8.970;2023-01-20T00:25:23;35.20;;;23.43;;
18780;SDS011;9519;51.890;8.970;2023-01-20T00:30:26;41.07;;;24.97;;
18780;SDS011;9519;51.890;8.970;2023-01-20T00:35:29;43.13;;;26.50;;
18780;SDS011;9519;51.890;8.970;2023-01-20T00:40:32;48.50;;;27.27;;
18780;SDS011;9519;51.890;8.970;2023-01-20T00:45:34;51.63;;;30.33;;
18780;SDS011;9519;51.890;8.970;2023-01-20T00:50:36;57.23;;;31.97;;
18780;SDS011;9519;51.890;8.970;2023-01-20T00:55:40;54.17;;;30.83;;
18780;SDS011;9519;51.890;8.970;2023-01-20T01:00:42;49.90;;;28.73;;
18780;SDS011;9519;51.890;8.970;2023-01-20T01:05:47;49.80;;;28.97;;
18780;SDS011;9519;51.890;8.970;2023-01-20T01:10:50;46.13;;;29.87;;
18780;SDS011;9519;51.890;8.970;2023-01-20T01:15:56;53.43;;;29.17;;
18780;SDS011;9519;51.890;8.970;2023-01-20T01:20:58;51.77;;;28.60;;
18780;SDS011;9519;51.890;8.970;2023-01-20T01:26:01;46.50;;;29.03;;
18780;SDS011;9519;51.890;8.970;2023-01-20T01:31:04;48.33;;;28.80;;
18780;SDS011;9519;51.890;8.970;2023-01-20T01:36:09;49.23;;;29.40;;
18780;SDS011;9519;51.890;8.970;2023-01-20T01:41:16;53.73;;;30.17;;
18780;SDS011;9519;51.890;8.970;2023-01-20T01:46:18;49.20;;;28.67;;
18780;SDS011;9519;51.890;8.970;2023-01-20T01:51:21;50.20;;;30.30;;
18780;SDS011;9519;51.890;8.970;2023-01-20T01:56:28;50.87;;;29.70;;
18780;SDS011;9519;51.890;8.970;2023-01-20T02:01:32;50.70;;;29.40;;
18780;SDS011;9519;51.890;8.970;2023-01-20T02:06:39;43.37;;;26.27;;
18780;SDS011;9519;51.890;8.970;2023-01-20T02:11:46;43.13;;;25.30;;
18780;SDS011;9519;51.890;8.970;2023-01-20T02:16:55;43.87;;;25.87;;
18780;SDS011;9519;51.890;8.970;2023-01-20T02:22:07;40.00;;;24.57;;
18780;SDS011;9519;51.890;8.970;2023-01-20T02:27:30;43.27;;;24.73;;
18780;SDS011;9519;51.890;8.970;2023-01-20T02:32:56;38.00;;;24.60;;
18780;SDS011;9519;51.890;8.970;2023-01-20T02:38:07;40.67;;;24.83;;
18780;SDS011;9519;51.890;8.970;2023-01-20T02:43:19;37.77;;;24.00;;
18780;SDS011;9519;51.890;8.970;2023-01-20T02:48:50;41.03;;;26.70;;
18780;SDS011;9519;51.890;8.970;2023-01-20T02:53:59;46.23;;;26.50;;
18780;SDS011;9519;51.890;8.970;2023-01-20T02:59:07;42.57;;;24.73;;
18780;SDS011;9519;51.890;8.970;2023-01-20T03:04:15;43.83;;;25.20;;
18780;SDS011;9519;51.890;8.970;2023-01-20T03:09:24;37.33;;;23.80;;
18780;SDS011;9519;51.890;8.970;2023-01-20T03:14:33;47.63;;;27.03;;
18780;SDS011;9519;51.890;8.970;2023-01-20T03:19:36;44.30;;;27.30;;
18780;SDS011;9519;51.890;8.970;2023-01-20T03:24:38;49.37;;;27.27;;
18780;SDS011;9519;51.890;8.970;2023-01-20T03:29:44;45.83;;;28.00;;
18780;SDS011;9519;51.890;8.970;2023-01-20T03:34:47;44.43;;;26.20;;
18780;SDS011;9519;51.890;8.970;2023-01-20T03:39:49;43.20;;;26.33;;
18780;SDS011;9519;51.890;8.970;2023-01-20T03:44:56;42.33;;;26.10;;
18780;SDS011;9519;51.890;8.970;2023-01-20T03:50:12;43.83;;;25.97;;
18780;SDS011;9519;51.890;8.970;2023-01-20T03:55:32;43.30;;;25.13;;
18780;SDS011;9519;51.890;8.970;2023-01-20T04:00:42;37.33;;;24.50;;
18780;SDS011;9519;51.890;8.970;2023-01-20T04:05:49;41.37;;;26.27;;
18780;SDS011;9519;51.890;8.970;2023-01-20T04:10:52;42.23;;;25.17;;
18780;SDS011;9519;51.890;8.970;2023-01-20T04:15:58;44.43;;;25.00;;
18780;SDS011;9519;51.890;8.970;2023-01-20T04:21:04;46.60;;;25.80;;
18780;SDS011;9519;51.890;8.970;2023-01-20T04:26:08;40.37;;;25.57;;
18780;SDS011;9519;51.890;8.970;2023-01-20T04:31:10;36.93;;;24.07;;
18780;SDS011;9519;51.890;8.970;2023-01-20T04:36:15;42.50;;;24.57;;
18780;SDS011;9519;51.890;8.970;2023-01-20T04:41:17;34.93;;;21.43;;
18780;SDS011;9519;51.890;8.970;2023-01-20T04:46:19;38.90;;;23.50;;
18780;SDS011;9519;51.890;8.970;2023-01-20T04:51:23;39.67;;;25.13;;
18780;SDS011;9519;51.890;8.970;2023-01-20T04:56:25;38.83;;;26.00;;
18780;SDS011;9519;51.890;8.970;2023-01-20T05:01:27;47.03;;;25.90;;
18780;SDS011;9519;51.890;8.970;2023-01-20T05:06:30;38.13;;;23.20;;
18780;SDS011;9519;51.890;8.970;2023-01-20T05:11:33;37.63;;;23.23;;
18780;SDS011;9519;51.890;8.970;2023-01-20T05:16:35;38.33;;;22.67;;
18780;SDS011;9519;51.890;8.970;2023-01-20T05:21:38;39.57;;;23.13;;
18780;SDS011;9519;51.890;8.970;2023-01-20T05:26:41;38.40;;;22.53;;
18780;SDS011;9519;51.890;8.970;2023-01-20T05:31:43;38.07;;;23.27;;
18780;SDS011;9519;51.890;8.970;2023-01-20T05:36:48;38.40;;;24.40;;
18780;SDS011;9519;51.890;8.970;2023-01-20T05:41:52;44.67;;;27.30;;
18780;SDS011;9519;51.890;8.970;2023-01-20T05:46:54;39.37;;;24.87;;
18780;SDS011;9519;51.890;8.970;2023-01-20T05:51:58;39.60;;;23.77;;
18780;SDS011;9519;51.890;8.970;2023-01-20T05:57:00;34.83;;;23.27;;
18780;SDS011;9519;51.890;8.970;2023-01-20T06:02:03;36.67;;;21.23;;
18780;SDS011;9519;51.890;8.970;2023-01-20T06:07:06;37.27;;;22.13;;
18780;SDS011;9519;51.890;8.970;2023-01-20T06:12:11;33.63;;;21.77;;
18780;SDS011;9519;51.890;8.970;2023-01-20T06:17:13;34.80;;;21.53;;
18780;SDS011;9519;51.890;8.970;2023-01-20T06:22:17;34.97;;;21.10;;
18780;SDS011;9519;51.890;8.970;2023-01-20T06:27:20;37.67;;;23.67;;
18780;SDS011;9519;51.890;8.970;2023-01-20T06:32:22;37.97;;;22.37;;
18780;SDS011;9519;51.890;8.970;2023-01-20T06:37:25;34.67;;;21.73;;
18780;SDS011;9519;51.890;8.970;2023-01-20T06:42:28;37.07;;;22.40;;
18780;SDS011;9519;51.890;8.970;2023-01-20T06:47:31;39.07;;;22.63;;
18780;SDS011;9519;51.890;8.970;2023-01-20T06:52:35;35.50;;;22.60;;
18780;SDS011;9519;51.890;8.970;2023-01-20T06:57:37;36.77;;;21.37;;
18780;SDS011;9519;51.890;8.970;2023-01-20T07:02:39;31.20;;;20.60;;
18780;SDS011;9519;51.890;8.970;2023-01-20T07:07:43;31.23;;;19.43;;
18780;SDS011;9519;51.890;8.970;2023-01-20T07:12:45;36.40;;;20.83;;
18780;SDS011;9519;51.890;8.970;2023-01-20T07:17:47;37.33;;;22.43;;
18780;SDS011;9519;51.890;8.970;2023-01-20T07:22:51;35.47;;;21.83;;
18780;SDS011;9519;51.890;8.970;2023-01-20T07:27:53;35.67;;;20.80;;
18780;SDS011;9519;51.890;8.970;2023-01-20T07:32:56;35.97;;;21.70;;
18780;SDS011;9519;51.890;8.970;2023-01-20T07:38:00;30.10;;;19.43;;
18780;SDS011;9519;51.890;8.970;2023-01-20T07:43:03;34.77;;;21.03;;
18780;SDS011;9519;51.890;8.970;2023-01-20T07:48:05;30.77;;;20.03;;
18780;SDS011;9519;51.890;8.970;2023-01-20T07:53:09;31.73;;;19.87;;
18780;SDS011;9519;51.890;8.970;2023-01-20T07:58:11;33.80;;;20.43;;
18780;SDS011;9519;51.890;8.970;2023-01-20T08:03:13;32.57;;;20.80;;
18780;SDS011;9519;51.890;8.970;2023-01-20T08:08:16;31.87;;;19.20;;
18780;SDS011;9519;51.890;8.970;2023-01-20T08:13:19;35.70;;;19.60;;
18780;SDS011;9519;51.890;8.970;2023-01-20T08:18:21;32.07;;;18.70;;
18780;SDS011;9519;51.890;8.970;2023-01-20T08:23:24;27.33;;;17.90;;
18780;SDS011;9519;51.890;8.970;2023-01-20T08:28:26;30.27;;;17.63;;
18780;SDS011;9519;51.890;8.970;2023-01-20T08:33:29;34.40;;;19.53;;
18780;SDS011;9519;51.890;8.970;2023-01-20T08:38:33;31.63;;;19.23;;
18780;SDS011;9519;51.890;8.970;2023-01-20T08:43:36;34.60;;;21.00;;
18780;SDS011;9519;51.890;8.970;2023-01-20T08:48:39;31.77;;;20.03;;
18780;SDS011;9519;51.890;8.970;2023-01-20T08:53:44;34.03;;;18.70;;
18780;SDS011;9519;51.890;8.970;2023-01-20T08:58:47;26.27;;;17.00;;
18780;SDS011;9519;51.890;8.970;2023-01-20T09:03:50;26.63;;;17.13;;
18780;SDS011;9519;51.890;8.970;2023-01-20T09:08:57;28.70;;;17.23;;
18780;SDS011;9519;51.890;8.970;2023-01-20T09:13:59;26.90;;;16.80;;
18780;SDS011;9519;51.890;8.970;2023-01-20T09:19:01;23.33;;;16.20;;
18780;SDS011;9519;51.890;8.970;2023-01-20T09:24:06;23.30;;;15.33;;
18780;SDS011;9519;51.890;8.970;2023-01-20T09:29:08;27.53;;;16.03;;
18780;SDS011;9519;51.890;8.970;2023-01-20T09:34:13;23.60;;;15.27;;
18780;SDS011;9519;51.890;8.970;2023-01-20T09:39:23;28.43;;;16.37;;
18780;SDS011;9519;51.890;8.970;2023-01-20T09:44:45;27.77;;;16.77;;
18780;SDS011;9519;51.890;8.970;2023-01-20T09:55:58;22.33;;;16.70;;
18780;SDS011;9519;51.890;8.970;2023-01-20T10:01:09;23.03;;;15.53;;
18780;SDS011;9519;51.890;8.970;2023-01-20T10:06:19;21.30;;;15.17;;
18780;SDS011;9519;51.890;8.970;2023-01-20T10:11:32;24.43;;;15.93;;
18780;SDS011;9519;51.890;8.970;2023-01-20T10:16:41;23.23;;;14.73;;
18780;SDS011;9519;51.890;8.970;2023-01-20T10:21:56;27.37;;;15.97;;
18780;SDS011;9519;51.890;8.970;2023-01-20T10:27:11;23.67;;;15.47;;
18780;SDS011;9519;51.890;8.970;2023-01-20T10:32:15;23.37;;;15.00;;
18780;SDS011;9519;51.890;8.970;2023-01-20T10:37:28;22.27;;;15.30;;
18780;SDS011;9519;51.890;8.970;2023-01-20T10:42:33;21.57;;;13.90;;
18780;SDS011;9519;51.890;8.970;2023-01-20T10:47:40;25.10;;;15.80;;
18780;SDS011;9519;51.890;8.970;2023-01-20T10:58:36;25.20;;;15.63;;
18780;SDS011;9519;51.890;8.970;2023-01-20T11:03:44;20.90;;;14.27;;
18780;SDS011;9519;51.890;8.970;2023-01-20T11:08:48;20.60;;;12.97;;
18780;SDS011;9519;51.890;8.970;2023-01-20T11:13:52;19.53;;;13.07;;
18780;SDS011;9519;51.890;8.970;2023-01-20T11:18:55;25.10;;;16.40;;
18780;SDS011;9519;51.890;8.970;2023-01-20T11:24:00;23.67;;;16.43;;
18780;SDS011;9519;51.890;8.970;2023-01-20T11:34:29;23.20;;;16.20;;
18780;SDS011;9519;51.890;8.970;2023-01-20T11:39:34;24.30;;;16.07;;
18780;SDS011;9519;51.890;8.970;2023-01-20T11:44:44;21.20;;;14.67;;
18780;SDS011;9519;51.890;8.970;2023-01-20T11:49:58;20.90;;;15.03;;
18780;SDS011;9519;51.890;8.970;2023-01-20T11:55:24;25.17;;;16.57;;
18780;SDS011;9519;51.890;8.970;2023-01-20T12:00:35;24.47;;;15.73;;
18780;SDS011;9519;51.890;8.970;2023-01-20T12:05:42;22.40;;;15.80;;
18780;SDS011;9519;51.890;8.970;2023-01-20T12:10:52;22.30;;;15.70;;
18780;SDS011;9519;51.890;8.970;2023-01-20T12:16:00;23.30;;;15.17;;
18780;SDS011;9519;51.890;8.970;2023-01-20T12:21:09;24.13;;;15.23;;
18780;SDS011;9519;51.890;8.970;2023-01-20T12:26:18;24.43;;;16.07;;
18780;SDS011;9519;51.890;8.970;2023-01-20T12:31:24;22.77;;;16.00;;
18780;SDS011;9519;51.890;8.970;2023-01-20T12:42:17;21.50;;;15.07;;
18780;SDS011;9519;51.890;8.970;2023-01-20T12:48:19;23.17;;;15.63;;
18780;SDS011;9519;51.890;8.970;2023-01-20T12:53:40;21.50;;;16.27;;
18780;SDS011;9519;51.890;8.970;2023-01-20T12:59:19;25.10;;;15.60;;
18780;SDS011;9519;51.890;8.970;2023-01-20T13:10:18;24.17;;;16.03;;
18780;SDS011;9519;51.890;8.970;2023-01-20T13:15:35;21.47;;;14.87;;
18780;SDS011;9519;51.890;8.970;2023-01-20T13:20:46;21.47;;;15.40;;
18780;SDS011;9519;51.890;8.970;2023-01-20T13:25:50;20.37;;;14.37;;
18780;SDS011;9519;51.890;8.970;2023-01-20T13:30:54;22.03;;;14.90;;
18780;SDS011;9519;51.890;8.970;2023-01-20T13:35:59;23.47;;;16.60;;
18780;SDS011;9519;51.890;8.970;2023-01-20T13:46:50;24.60;;;15.17;;
18780;SDS011;9519;51.890;8.970;2023-01-20T13:51:56;23.77;;;15.73;;
18780;SDS011;9519;51.890;8.970;2023-01-20T14:02:39;23.50;;;16.20;;
18780;SDS011;9519;51.890;8.970;2023-01-20T14:07:45;25.87;;;17.33;;
18780;SDS011;9519;51.890;8.970;2023-01-20T14:12:47;21.40;;;16.27;;
18780;SDS011;9519;51.890;8.970;2023-01-20T14:17:51;26.57;;;16.43;;
18780;SDS011;9519;51.890;8.970;2023-01-20T14:28:39;24.43;;;16.50;;
18780;SDS011;9519;51.890;8.970;2023-01-20T14:33:52;24.70;;;16.67;;
18780;SDS011;9519;51.890;8.970;2023-01-20T14:39:02;25.00;;;15.63;;
18780;SDS011;9519;51.890;8.970;2023-01-20T14:44:11;21.73;;;16.03;;
18780;SDS011;9519;51.890;8.970;2023-01-20T14:49:19;25.13;;;17.13;;
18780;SDS011;9519;51.890;8.970;2023-01-20T14:54:36;23.93;;;16.97;;
18780;SDS011;9519;51.890;8.970;2023-01-20T14:59:43;21.73;;;15.70;;
18780;SDS011;9519;51.890;8.970;2023-01-20T15:04:46;24.07;;;16.37;;
18780;SDS011;9519;51.890;8.970;2023-01-20T15:09:54;27.13;;;17.40;;
18780;SDS011;9519;51.890;8.970;2023-01-20T15:15:18;26.07;;;17.97;;
18780;SDS011;9519;51.890;8.970;2023-01-20T15:20:29;26.67;;;19.37;;
18780;SDS011;9519;51.890;8.970;2023-01-20T15:25:35;30.30;;;18.67;;
18780;SDS011;9519;51.890;8.970;2023-01-20T15:30:37;25.47;;;16.70;;
18780;SDS011;9519;51.890;8.970;2023-01-20T15:35:39;25.83;;;18.13;;
18780;SDS011;9519;51.890;8.970;2023-01-20T15:40:43;25.77;;;18.30;;
18780;SDS011;9519;51.890;8.970;2023-01-20T15:45:45;26.43;;;18.07;;
18780;SDS011;9519;51.890;8.970;2023-01-20T15:50:47;27.83;;;19.33;;
18780;SDS011;9519;51.890;8.970;2023-01-20T15:55:51;30.03;;;19.70;;
18780;SDS011;9519;51.890;8.970;2023-01-20T16:00:53;29.67;;;19.93;;
18780;SDS011;9519;51.890;8.970;2023-01-20T16:05:57;30.77;;;20.10;;
18780;SDS011;9519;51.890;8.970;2023-01-20T16:11:01;28.63;;;19.70;;
18780;SDS011;9519;51.890;8.970;2023-01-20T16:16:03;31.43;;;19.40;;
18780;SDS011;9519;51.890;8.970;2023-01-20T16:21:13;35.77;;;21.50;;
18780;SDS011;9519;51.890;8.970;2023-01-20T16:26:19;34.60;;;22.53;;
18780;SDS011;9519;51.890;8.970;2023-01-20T16:31:26;34.97;;;22.53;;
18780;SDS011;9519;51.890;8.970;2023-01-20T16:36:28;38.30;;;24.43;;
18780;SDS011;9519;51.890;8.970;2023-01-20T16:41:32;37.87;;;23.90;;
18780;SDS011;9519;51.890;8.970;2023-01-20T16:46:36;36.53;;;24.37;;
18780;SDS011;9519;51.890;8.970;2023-01-20T16:51:39;37.33;;;25.67;;
18780;SDS011;9519;51.890;8.970;2023-01-20T16:56:43;38.53;;;24.17;;
18780;SDS011;9519;51.890;8.970;2023-01-20T17:01:45;37.63;;;25.57;;
18780;SDS011;9519;51.890;8.970;2023-01-20T17:06:48;39.70;;;25.90;;
18780;SDS011;9519;51.890;8.970;2023-01-20T17:11:54;41.13;;;26.13;;
18780;SDS011;9519;51.890;8.970;2023-01-20T17:16:56;39.00;;;25.83;;
18780;SDS011;9519;51.890;8.970;2023-01-20T17:21:59;37.27;;;25.33;;
18780;SDS011;9519;51.890;8.970;2023-01-20T17:27:02;40.70;;;27.87;;
18780;SDS011;9519;51.890;8.970;2023-01-20T17:32:04;41.10;;;26.17;;
18780;SDS011;9519;51.890;8.970;2023-01-20T17:37:06;41.40;;;27.83;;
18780;SDS011;9519;51.890;8.970;2023-01-20T17:42:12;53.77;;;33.13;;
18780;SDS011;9519;51.890;8.970;2023-01-20T17:47:15;47.53;;;30.00;;
18780;SDS011;9519;51.890;8.970;2023-01-20T17:52:17;42.17;;;27.40;;
18780;SDS011;9519;51.890;8.970;2023-01-20T17:57:23;46.17;;;28.60;;
18780;SDS011;9519;51.890;8.970;2023-01-20T18:02:25;45.30;;;29.00;;
18780;SDS011;9519;51.890;8.970;2023-01-20T18:07:27;46.47;;;30.50;;
18780;SDS011;9519;51.890;8.970;2023-01-20T18:12:30;44.87;;;29.77;;
18780;SDS011;9519;51.890;8.970;2023-01-20T18:17:33;44.40;;;27.80;;
18780;SDS011;9519;51.890;8.970;2023-01-20T18:22:35;44.13;;;27.90;;
18780;SDS011;9519;51.890;8.970;2023-01-20T18:27:38;51.57;;;30.50;;
18780;SDS011;9519;51.890;8.970;2023-01-20T18:32:40;62.20;;;34.43;;
18780;SDS011;9519;51.890;8.970;2023-01-20T18:37:43;50.20;;;30.77;;
18780;SDS011;9519;51.890;8.970;2023-01-20T18:42:47;45.63;;;28.83;;
18780;SDS011;9519;51.890;8.970;2023-01-20T18:47:49;46.43;;;29.40;;
18780;SDS011;9519;51.890;8.970;2023-01-20T18:52:51;48.50;;;30.80;;
18780;SDS011;9519;51.890;8.970;2023-01-20T18:57:58;44.63;;;29.63;;
18780;SDS011;9519;51.890;8.970;2023-01-20T19:03:02;44.13;;;31.10;;
18780;SDS011;9519;51.890;8.970;2023-01-20T19:08:04;51.07;;;33.73;;
18780;SDS011;9519;51.890;8.970;2023-01-20T19:13:08;49.70;;;34.53;;
18780;SDS011;9519;51.890;8.970;2023-01-20T19:18:10;49.87;;;33.53;;
18780;SDS011;9519;51.890;8.970;2023-01-20T19:23:13;57.97;;;37.17;;
18780;SDS011;9519;51.890;8.970;2023-01-20T19:28:16;51.73;;;34.73;;
18780;SDS011;9519;51.890;8.970;2023-01-20T19:33:18;56.20;;;35.30;;
18780;SDS011;9519;51.890;8.970;2023-01-20T19:38:21;66.27;;;40.17;;
18780;SDS011;9519;51.890;8.970;2023-01-20T19:43:25;64.20;;;41.67;;
18780;SDS011;9519;51.890;8.970;2023-01-20T19:48:27;64.60;;;40.20;;
18780;SDS011;9519;51.890;8.970;2023-01-20T19:54:45;72.50;;;42.57;;
18780;SDS011;9519;51.890;8.970;2023-01-20T19:59:28;73.50;;;43.33;;
18780;SDS011;9519;51.890;8.970;2023-01-20T20:04:30;65.97;;;43.23;;
18780;SDS011;9519;51.890;8.970;2023-01-20T20:09:33;73.73;;;46.47;;
18780;SDS011;9519;51.890;8.970;2023-01-20T20:14:38;62.60;;;37.90;;
18780;SDS011;9519;51.890;8.970;2023-01-20T20:19:40;56.90;;;36.47;;
18780;SDS011;9519;51.890;8.970;2023-01-20T20:24:42;54.53;;;34.93;;
18780;SDS011;9519;51.890;8.970;2023-01-20T20:29:47;48.90;;;31.87;;
18780;SDS011;9519;51.890;8.970;2023-01-20T20:34:49;45.17;;;30.33;;
18780;SDS011;9519;51.890;8.970;2023-01-20T20:39:51;48.40;;;31.57;;
18780;SDS011;9519;51.890;8.970;2023-01-20T20:44:55;49.20;;;31.30;;
18780;SDS011;9519;51.890;8.970;2023-01-20T20:49:57;51.07;;;31.57;;
18780;SDS011;9519;51.890;8.970;2023-01-20T20:54:59;56.80;;;36.63;;
18780;SDS011;9519;51.890;8.970;2023-01-20T21:00:03;58.10;;;35.07;;
18780;SDS011;9519;51.890;8.970;2023-01-20T21:05:07;59.90;;;35.63;;
18780;SDS011;9519;51.890;8.970;2023-01-20T21:10:10;59.20;;;35.00;;
18780;SDS011;9519;51.890;8.970;2023-01-20T21:15:17;58.90;;;34.53;;
18780;SDS011;9519;51.890;8.970;2023-01-20T21:20:19;45.87;;;29.30;;
18780;SDS011;9519;51.890;8.970;2023-01-20T21:25:21;46.60;;;29.70;;
18780;SDS011;9519;51.890;8.970;2023-01-20T21:30:25;53.60;;;32.33;;
18780;SDS011;9519;51.890;8.970;2023-01-20T21:35:27;52.17;;;31.80;;
18780;SDS011;9519;51.890;8.970;2023-01-20T21:40:29;55.37;;;32.67;;
18780;SDS011;9519;51.890;8.970;2023-01-20T21:45:33;67.23;;;41.80;;
18780;SDS011;9519;51.890;8.970;2023-01-20T21:50:35;71.03;;;43.33;;
18780;SDS011;9519;51.890;8.970;2023-01-20T21:55:54;65.20;;;38.03;;
18780;SDS011;9519;51.890;8.970;2023-01-20T22:00:58;56.13;;;35.30;;
18780;SDS011;9519;51.890;8.970;2023-01-20T22:06:01;50.27;;;32.77;;
18780;SDS011;9519;51.890;8.970;2023-01-20T22:11:07;59.33;;;38.60;;
18780;SDS011;9519;51.890;8.970;2023-01-20T22:16:11;57.30;;;36.27;;
18780;SDS011;9519;51.890;8.970;2023-01-20T22:21:13;62.90;;;39.73;;
18780;SDS011;9519;51.890;8.970;2023-01-20T22:26:15;55.93;;;36.87;;
18780;SDS011;9519;51.890;8.970;2023-01-20T22:31:19;55.37;;;34.87;;
18780;SDS011;9519;51.890;8.970;2023-01-20T22:36:23;54.77;;;33.50;;
18780;SDS011;9519;51.890;8.970;2023-01-20T22:41:25;51.97;;;32.30;;
18780;SDS011;9519;51.890;8.970;2023-01-20T22:46:29;54.90;;;34.37;;
18780;SDS011;9519;51.890;8.970;2023-01-20T22:51:31;60.60;;;35.50;;
18780;SDS011;9519;51.890;8.970;2023-01-20T22:56:33;57.77;;;35.00;;
18780;SDS011;9519;51.890;8.970;2023-01-20T23:01:38;53.93;;;32.37;;
18780;SDS011;9519;51.890;8.970;2023-01-20T23:06:40;48.33;;;30.10;;
18780;SDS011;9519;51.890;8.970;2023-01-20T23:11:43;48.50;;;29.93;;
18780;SDS011;9519;51.890;8.970;2023-01-20T23:16:47;50.43;;;29.73;;
18780;SDS011;9519;51.890;8.970;2023-01-20T23:21:49;49.63;;;27.40;;
18780;SDS011;9519;51.890;8.970;2023-01-20T23:26:51;46.43;;;26.87;;
18780;SDS011;9519;51.890;8.970;2023-01-20T23:31:55;46.70;;;24.50;;
18780;SDS011;9519;51.890;8.970;2023-01-20T23:36:57;41.80;;;26.10;;
18780;SDS011;9519;51.890;8.970;2023-01-20T23:41:59;45.23;;;28.10;;
18780;SDS011;9519;51.890;8.970;2023-01-20T23:47:03;43.03;;;26.87;;
18780;SDS011;9519;51.890;8.970;2023-01-20T23:52:06;66.80;;;37.20;;
18780;SDS011;9519;51.890;8.970;2023-01-20T23:57:09;59.87;;;31.73;;
